createdAt,value
2022-08-30T00:00:50.465Z,1008.52
2022-08-30T00:01:50.450Z,1008.57
2022-08-30T00:02:50.576Z,1008.55
2022-08-30T00:03:50.629Z,1008.51
2022-08-30T00:04:50.419Z,1008.49
2022-08-30T00:05:50.374Z,1008.47
2022-08-30T00:06:50.379Z,1008.47
2022-08-30T00:07:50.340Z,1008.48
2022-08-30T00:08:50.343Z,1008.44
2022-08-30T00:09:50.312Z,1008.49
2022-08-30T00:10:50.303Z,1008.45
2022-08-30T00:11:50.294Z,1008.43
2022-08-30T00:12:50.279Z,1008.43
2022-08-30T00:13:50.239Z,1008.48
2022-08-30T00:14:50.225Z,1008.41
2022-08-30T00:15:50.290Z,1008.39
2022-08-30T00:16:50.184Z,1008.37
2022-08-30T00:17:50.168Z,1008.35
2022-08-30T00:18:50.152Z,1008.32
2022-08-30T00:19:50.155Z,1008.30
2022-08-30T00:20:50.140Z,1008.32
2022-08-30T00:21:50.109Z,1008.34
2022-08-30T00:22:51.078Z,1008.30
2022-08-30T00:23:50.097Z,1008.34
2022-08-30T00:24:50.065Z,1008.31
2022-08-30T00:25:50.041Z,1008.33
2022-08-30T00:26:50.018Z,1008.33
2022-08-30T00:27:50.013Z,1008.32
2022-08-30T00:28:50.006Z,1008.36
2022-08-30T00:29:49.994Z,1008.34
2022-08-30T00:30:49.982Z,1008.36
2022-08-30T00:31:49.936Z,1008.34
2022-08-30T00:32:49.929Z,1008.33
2022-08-30T00:33:49.887Z,1008.31
2022-08-30T00:34:49.867Z,1008.33
2022-08-30T00:35:49.864Z,1008.30
2022-08-30T00:36:49.851Z,1008.32
2022-08-30T00:37:49.849Z,1008.34
2022-08-30T00:38:49.802Z,1008.28
2022-08-30T00:39:49.792Z,1008.30
2022-08-30T00:40:49.842Z,1008.32
2022-08-30T00:41:49.769Z,1008.30
2022-08-30T00:42:50.968Z,1008.28
2022-08-30T00:43:49.714Z,1008.32
2022-08-30T00:44:49.702Z,1008.29
2022-08-30T00:45:49.722Z,1008.31
2022-08-30T00:46:49.668Z,1008.23
2022-08-30T00:47:49.636Z,1008.25
2022-08-30T00:48:49.646Z,1008.28
2022-08-30T00:49:49.653Z,1008.30
2022-08-30T00:50:49.609Z,1008.28
2022-08-30T00:51:49.568Z,1008.33
2022-08-30T00:52:49.570Z,1008.37
2022-08-30T00:53:49.553Z,1008.33
2022-08-30T00:54:49.535Z,1008.38
2022-08-30T00:55:49.494Z,1008.38
2022-08-30T00:56:49.485Z,1008.39
2022-08-30T00:57:49.470Z,1008.35
2022-08-30T00:58:49.479Z,1008.31
2022-08-30T00:59:49.430Z,1008.34
2022-08-30T01:00:49.425Z,1008.33
2022-08-30T01:01:49.478Z,1008.35
2022-08-30T01:02:49.451Z,1008.33
2022-08-30T01:03:49.391Z,1008.33
2022-08-30T01:04:49.342Z,1008.26
2022-08-30T01:05:49.336Z,1008.32
2022-08-30T01:06:49.324Z,1008.27
2022-08-30T01:07:49.342Z,1008.25
2022-08-30T01:08:49.272Z,1008.27
2022-08-30T01:09:49.277Z,1008.33
2022-08-30T01:10:49.261Z,1008.28
2022-08-30T01:11:50.186Z,1008.31
2022-08-30T01:12:49.195Z,1008.30
2022-08-30T01:13:49.207Z,1008.31
2022-08-30T01:14:49.194Z,1008.28
2022-08-30T01:15:49.231Z,1008.29
2022-08-30T01:16:49.125Z,1008.30
2022-08-30T01:17:49.126Z,1008.27
2022-08-30T01:18:49.115Z,1008.29
2022-08-30T01:19:49.114Z,1008.32
2022-08-30T01:20:49.057Z,1008.30
2022-08-30T01:21:49.059Z,1008.34
2022-08-30T01:22:49.027Z,1008.33
2022-08-30T01:23:49.030Z,1008.35
2022-08-30T01:24:48.983Z,1008.33
2022-08-30T01:25:48.980Z,1008.32
2022-08-30T01:26:48.955Z,1008.34
2022-08-30T01:27:48.988Z,1008.40
2022-08-30T01:28:48.951Z,1008.39
2022-08-30T01:29:48.985Z,1008.39
2022-08-30T01:30:48.921Z,1008.40
2022-08-30T01:31:48.888Z,1008.41
2022-08-30T01:32:49.708Z,1008.41
2022-08-30T01:33:48.826Z,1008.45
2022-08-30T01:34:48.827Z,1008.43
2022-08-30T01:35:48.822Z,1008.42
2022-08-30T01:36:49.702Z,1008.43
2022-08-30T01:37:48.756Z,1008.45
2022-08-30T01:38:48.759Z,1008.42
2022-08-30T01:39:48.750Z,1008.43
2022-08-30T01:40:48.707Z,1008.47
2022-08-30T01:41:48.687Z,1008.50
2022-08-30T01:42:48.673Z,1008.50
2022-08-30T01:43:48.675Z,1008.51
2022-08-30T01:44:48.672Z,1008.51
2022-08-30T01:45:48.639Z,1008.49
2022-08-30T01:46:48.596Z,1008.50
2022-08-30T01:47:48.589Z,1008.53
2022-08-30T01:48:53.033Z,1008.51
2022-08-30T01:49:48.597Z,1008.54
2022-08-30T01:50:48.525Z,1008.54
2022-08-30T01:51:48.525Z,1008.51
2022-08-30T01:52:48.514Z,1008.49
2022-08-30T01:53:49.201Z,1008.51
2022-08-30T01:54:48.461Z,1008.50
2022-08-30T01:55:48.452Z,1008.51
2022-08-30T01:56:48.432Z,1008.48
2022-08-30T01:57:48.446Z,1008.53
2022-08-30T01:58:48.392Z,1008.54
2022-08-30T01:59:48.424Z,1008.59
2022-08-30T02:00:48.376Z,1008.60
2022-08-30T02:01:48.420Z,1008.60
2022-08-30T02:02:48.314Z,1008.65
2022-08-30T02:03:48.369Z,1008.57
2022-08-30T02:04:48.298Z,1008.62
2022-08-30T02:05:48.258Z,1008.62
2022-08-30T02:06:48.237Z,1008.64
2022-08-30T02:07:48.226Z,1008.62
2022-08-30T02:08:48.214Z,1008.59
2022-08-30T02:09:48.189Z,1008.61
2022-08-30T02:10:48.170Z,1008.54
2022-08-30T02:11:48.169Z,1008.56
2022-08-30T02:12:48.156Z,1008.55
2022-08-30T02:13:48.160Z,1008.56
2022-08-30T02:14:48.096Z,1008.51
2022-08-30T02:15:48.077Z,1008.52
2022-08-30T02:16:48.144Z,1008.56
2022-08-30T02:17:48.126Z,1008.53
2022-08-30T02:18:48.752Z,1008.50
2022-08-30T02:19:48.018Z,1008.50
2022-08-30T02:20:48.011Z,1008.52
2022-08-30T02:21:47.988Z,1008.51
2022-08-30T02:22:49.536Z,1008.52
2022-08-30T02:23:47.944Z,1008.49
2022-08-30T02:24:47.938Z,1008.51
2022-08-30T02:25:47.925Z,1008.53
2022-08-30T02:26:48.707Z,1008.50
2022-08-30T02:27:47.870Z,1008.50
2022-08-30T02:28:49.451Z,1008.52
2022-08-30T02:29:47.841Z,1008.50
2022-08-30T02:30:47.829Z,1008.52
2022-08-30T02:31:47.792Z,1008.51
2022-08-30T02:32:47.806Z,1008.53
2022-08-30T02:33:47.786Z,1008.51
2022-08-30T02:34:47.745Z,1008.51
2022-08-30T02:35:47.720Z,1008.56
2022-08-30T02:36:47.707Z,1008.52
2022-08-30T02:37:47.706Z,1008.56
2022-08-30T02:38:47.694Z,1008.53
2022-08-30T02:39:47.652Z,1008.55
2022-08-30T02:40:47.734Z,1008.51
2022-08-30T02:41:47.620Z,1008.55
2022-08-30T02:42:47.624Z,1008.53
2022-08-30T02:43:47.597Z,1008.54
2022-08-30T02:44:47.558Z,1008.55
2022-08-30T02:45:47.623Z,1008.54
2022-08-30T02:46:47.570Z,1008.51
2022-08-30T02:47:48.238Z,1008.52
2022-08-30T02:48:47.490Z,1008.52
2022-08-30T02:49:47.486Z,1008.48
2022-08-30T02:50:47.492Z,1008.49
2022-08-30T02:51:48.221Z,1008.51
2022-08-30T02:52:48.274Z,1008.45
2022-08-30T02:53:47.410Z,1008.46
2022-08-30T02:54:48.151Z,1008.47
2022-08-30T02:55:48.225Z,1008.48
2022-08-30T02:56:47.342Z,1008.44
2022-08-30T02:57:47.337Z,1008.47
2022-08-30T02:58:47.340Z,1008.48
2022-08-30T02:59:47.296Z,1008.44
2022-08-30T03:00:47.299Z,1008.50
2022-08-30T03:01:47.286Z,1008.48
2022-08-30T03:02:47.259Z,1008.52
2022-08-30T03:03:47.277Z,1008.51
2022-08-30T03:04:47.207Z,1008.56
2022-08-30T03:05:47.184Z,1008.54
2022-08-30T03:06:47.183Z,1008.62
2022-08-30T03:07:47.147Z,1008.53
2022-08-30T03:08:47.131Z,1008.54
2022-08-30T03:09:47.115Z,1008.52
2022-08-30T03:10:47.109Z,1008.50
2022-08-30T03:11:47.094Z,1008.52
2022-08-30T03:12:47.071Z,1008.50
2022-08-30T03:13:47.038Z,1008.54
2022-08-30T03:14:47.056Z,1008.52
2022-08-30T03:15:47.021Z,1008.51
2022-08-30T03:16:47.820Z,1008.50
2022-08-30T03:17:46.968Z,1008.50
2022-08-30T03:18:46.952Z,1008.56
2022-08-30T03:19:46.984Z,1008.57
2022-08-30T03:20:48.319Z,1008.55
2022-08-30T03:21:46.912Z,1008.53
2022-08-30T03:22:46.894Z,1008.58
2022-08-30T03:23:46.895Z,1008.58
2022-08-30T03:24:46.851Z,1008.54
2022-08-30T03:25:46.823Z,1008.53
2022-08-30T03:26:46.815Z,1008.59
2022-08-30T03:27:46.802Z,1008.51
2022-08-30T03:28:46.776Z,1008.53
2022-08-30T03:29:46.761Z,1008.54
2022-08-30T03:30:46.738Z,1008.57
2022-08-30T03:31:53.294Z,1008.55
2022-08-30T03:32:46.697Z,1008.55
2022-08-30T03:33:46.694Z,1008.58
2022-08-30T03:34:46.670Z,1008.60
2022-08-30T03:35:46.667Z,1008.63
2022-08-30T03:36:46.625Z,1008.61
2022-08-30T03:37:46.614Z,1008.65
2022-08-30T03:38:46.591Z,1008.66
2022-08-30T03:39:46.599Z,1008.62
2022-08-30T03:40:46.586Z,1008.61
2022-08-30T03:41:46.551Z,1008.64
2022-08-30T03:42:46.516Z,1008.64
2022-08-30T03:43:46.522Z,1008.63
2022-08-30T03:44:46.514Z,1008.62
2022-08-30T03:45:47.292Z,1008.63
2022-08-30T03:46:46.448Z,1008.60
2022-08-30T03:47:46.429Z,1008.61
2022-08-30T03:48:46.451Z,1008.60
2022-08-30T03:49:47.268Z,1008.61
2022-08-30T03:50:46.374Z,1008.59
2022-08-30T03:51:46.378Z,1008.60
2022-08-30T03:52:46.369Z,1008.60
2022-08-30T03:53:46.356Z,1008.64
2022-08-30T03:54:46.323Z,1008.59
2022-08-30T03:55:46.317Z,1008.61
2022-08-30T03:56:46.286Z,1008.60
2022-08-30T03:57:46.254Z,1008.61
2022-08-30T03:58:46.236Z,1008.64
2022-08-30T03:59:46.223Z,1008.60
2022-08-30T04:00:46.306Z,1008.61
2022-08-30T04:01:46.297Z,1008.60
2022-08-30T04:02:46.171Z,1008.61
2022-08-30T04:03:46.143Z,1008.61
2022-08-30T04:04:46.139Z,1008.62
2022-08-30T04:05:46.132Z,1008.61
2022-08-30T04:06:46.106Z,1008.61
2022-08-30T04:07:46.075Z,1008.61
2022-08-30T04:08:46.089Z,1008.66
2022-08-30T04:09:46.070Z,1008.63
2022-08-30T04:10:46.034Z,1008.67
2022-08-30T04:11:45.998Z,1008.67
2022-08-30T04:12:49.603Z,1008.70
2022-08-30T04:13:45.988Z,1008.67
2022-08-30T04:14:46.006Z,1008.68
2022-08-30T04:15:45.932Z,1008.66
2022-08-30T04:16:46.028Z,1008.68
2022-08-30T04:17:45.915Z,1008.71
2022-08-30T04:18:45.882Z,1008.72
2022-08-30T04:19:45.865Z,1008.74
2022-08-30T04:20:45.855Z,1008.77
2022-08-30T04:21:45.844Z,1008.76
2022-08-30T04:22:45.841Z,1008.73
2022-08-30T04:23:45.793Z,1008.78
2022-08-30T04:24:45.775Z,1008.75
2022-08-30T04:25:45.765Z,1008.79
2022-08-30T04:26:45.775Z,1008.78
2022-08-30T04:27:45.734Z,1008.81
2022-08-30T04:28:45.697Z,1008.79
2022-08-30T04:29:45.700Z,1008.76
2022-08-30T04:30:45.693Z,1008.72
2022-08-30T04:31:45.756Z,1008.74
2022-08-30T04:32:45.629Z,1008.72
2022-08-30T04:33:45.632Z,1008.72
2022-08-30T04:34:45.624Z,1008.74
2022-08-30T04:35:46.269Z,1008.76
2022-08-30T04:36:48.207Z,1008.76
2022-08-30T04:37:45.556Z,1008.76
2022-08-30T04:38:45.546Z,1008.77
2022-08-30T04:39:46.282Z,1008.74
2022-08-30T04:40:45.574Z,1008.75
2022-08-30T04:41:45.480Z,1008.70
2022-08-30T04:42:45.476Z,1008.70
2022-08-30T04:43:45.436Z,1008.72
2022-08-30T04:44:45.420Z,1008.69
2022-08-30T04:45:45.462Z,1008.75
2022-08-30T04:46:45.418Z,1008.72
2022-08-30T04:47:45.364Z,1008.71
2022-08-30T04:48:45.399Z,1008.71
2022-08-30T04:49:45.333Z,1008.73
2022-08-30T04:50:45.331Z,1008.72
2022-08-30T04:51:45.333Z,1008.77
2022-08-30T04:52:45.294Z,1008.77
2022-08-30T04:53:45.266Z,1008.72
2022-08-30T04:54:45.259Z,1008.76
2022-08-30T04:55:45.258Z,1008.68
2022-08-30T04:56:45.777Z,1008.75
2022-08-30T04:57:45.225Z,1008.75
2022-08-30T04:58:45.185Z,1008.68
2022-08-30T04:59:45.240Z,1008.68
2022-08-30T05:00:45.194Z,1008.71
2022-08-30T05:01:46.100Z,1008.67
2022-08-30T05:02:45.172Z,1008.72
2022-08-30T05:03:45.118Z,1008.72
2022-08-30T05:04:45.068Z,1008.69
2022-08-30T05:05:45.075Z,1008.74
2022-08-30T05:06:45.159Z,1008.71
2022-08-30T05:07:45.044Z,1008.77
2022-08-30T05:08:46.110Z,1008.71
2022-08-30T05:09:45.005Z,1008.72
2022-08-30T05:10:44.962Z,1008.69
2022-08-30T05:11:44.985Z,1008.79
2022-08-30T05:12:44.959Z,1008.70
2022-08-30T05:13:45.787Z,1008.76
2022-08-30T05:14:44.894Z,1008.78
2022-08-30T05:15:44.892Z,1008.76
2022-08-30T05:16:44.985Z,1008.75
2022-08-30T05:17:45.796Z,1008.79
2022-08-30T05:18:44.831Z,1008.80
2022-08-30T05:19:44.817Z,1008.80
2022-08-30T05:20:44.824Z,1008.74
2022-08-30T05:21:44.777Z,1008.77
2022-08-30T05:22:44.763Z,1008.79
2022-08-30T05:23:44.760Z,1008.68
2022-08-30T05:24:44.750Z,1008.77
2022-08-30T05:25:44.743Z,1008.76
2022-08-30T05:26:44.768Z,1008.78
2022-08-30T05:27:44.673Z,1008.73
2022-08-30T05:28:44.672Z,1008.72
2022-08-30T05:29:44.656Z,1008.78
2022-08-30T05:30:45.305Z,1008.74
2022-08-30T05:31:44.670Z,1008.75
2022-08-30T05:32:44.598Z,1008.74
2022-08-30T05:33:44.599Z,1008.75
2022-08-30T05:34:44.560Z,1008.73
2022-08-30T05:35:44.540Z,1008.77
2022-08-30T05:36:44.523Z,1008.70
2022-08-30T05:37:44.531Z,1008.74
2022-08-30T05:38:44.515Z,1008.73
2022-08-30T05:39:50.895Z,1008.72
2022-08-30T05:40:44.516Z,1008.74
2022-08-30T05:41:44.461Z,1008.70
2022-08-30T05:42:44.433Z,1008.72
2022-08-30T05:43:45.294Z,1008.77
2022-08-30T05:44:44.499Z,1008.77
2022-08-30T05:45:44.380Z,1008.69
2022-08-30T05:46:44.383Z,1008.70
2022-08-30T05:47:44.337Z,1008.77
2022-08-30T05:48:44.324Z,1008.63
2022-08-30T05:49:44.306Z,1008.64
2022-08-30T05:50:44.402Z,1008.73
2022-08-30T05:51:44.309Z,1008.78
2022-08-30T05:52:44.820Z,1008.73
2022-08-30T05:53:44.236Z,1008.76
2022-08-30T05:54:44.237Z,1008.83
2022-08-30T05:55:44.235Z,1008.66
2022-08-30T05:56:44.807Z,1008.76
2022-08-30T05:57:44.169Z,1008.85
2022-08-30T05:58:44.159Z,1008.78
2022-08-30T05:59:44.173Z,1008.78
2022-08-30T06:00:44.158Z,1008.70
2022-08-30T06:01:44.500Z,1008.74
2022-08-30T06:02:44.169Z,1008.74
2022-08-30T06:03:44.092Z,1008.75
2022-08-30T06:04:44.089Z,1008.78
2022-08-30T06:05:44.821Z,1008.78
2022-08-30T06:06:44.027Z,1008.73
2022-08-30T06:07:44.016Z,1008.79
2022-08-30T06:08:44.020Z,1008.83
2022-08-30T06:09:44.030Z,1008.83
2022-08-30T06:10:43.962Z,1008.83
2022-08-30T06:11:43.945Z,1008.77
2022-08-30T06:12:43.950Z,1008.79
2022-08-30T06:13:43.947Z,1008.79
2022-08-30T06:14:46.827Z,1008.82
2022-08-30T06:15:43.948Z,1008.81
2022-08-30T06:16:43.874Z,1008.86
2022-08-30T06:17:43.877Z,1008.83
2022-08-30T06:18:43.865Z,1008.87
2022-08-30T06:19:43.841Z,1008.88
2022-08-30T06:20:43.814Z,1008.88
2022-08-30T06:21:43.810Z,1008.88
2022-08-30T06:22:43.807Z,1008.89
2022-08-30T06:23:43.766Z,1008.86
2022-08-30T06:24:57.089Z,1008.82
2022-08-30T06:25:43.736Z,1008.84
2022-08-30T06:26:43.719Z,1008.83
2022-08-30T06:27:43.734Z,1008.87
2022-08-30T06:28:43.724Z,1008.83
2022-08-30T06:29:43.675Z,1008.83
2022-08-30T06:30:43.662Z,1008.81
2022-08-30T06:31:43.760Z,1008.80
2022-08-30T06:32:43.661Z,1008.82
2022-08-30T06:33:43.632Z,1008.86
2022-08-30T06:34:43.595Z,1008.83
2022-08-30T06:35:57.044Z,1008.78
2022-08-30T06:36:43.609Z,1008.83
2022-08-30T06:37:43.577Z,1008.88
2022-08-30T06:38:43.544Z,1008.85
2022-08-30T06:39:43.614Z,1008.87
2022-08-30T06:40:43.605Z,1008.82
2022-08-30T06:41:44.064Z,1008.88
2022-08-30T06:42:43.537Z,1008.87
2022-08-30T06:43:48.178Z,1008.91
2022-08-30T06:44:45.699Z,1008.88
2022-08-30T06:45:43.468Z,1008.84
2022-08-30T06:46:43.501Z,1008.85
2022-08-30T06:47:44.964Z,1008.87
2022-08-30T06:48:46.328Z,1008.91
2022-08-30T06:49:43.381Z,1008.92
2022-08-30T06:50:43.368Z,1008.91
2022-08-30T06:51:43.372Z,1008.92
2022-08-30T06:52:43.329Z,1008.90
2022-08-30T06:53:43.519Z,1008.93
2022-08-30T06:54:43.320Z,1008.93
2022-08-30T06:55:43.700Z,1008.90
2022-08-30T06:56:57.683Z,1008.87
2022-08-30T06:57:43.253Z,1008.89
2022-08-30T06:58:43.244Z,1008.90
2022-08-30T06:59:43.253Z,1008.95
2022-08-30T07:00:43.235Z,1008.92
2022-08-30T07:01:43.903Z,1008.92
2022-08-30T07:02:43.264Z,1008.92
2022-08-30T07:03:43.170Z,1008.93
2022-08-30T07:04:43.177Z,1008.91
2022-08-30T07:05:43.191Z,1008.93
2022-08-30T07:06:45.853Z,1008.92
2022-08-30T07:07:43.113Z,1008.99
2022-08-30T07:08:43.112Z,1009.03
2022-08-30T07:09:43.116Z,1008.94
2022-08-30T07:10:43.110Z,1008.93
2022-08-30T07:11:43.845Z,1008.92
2022-08-30T07:12:43.077Z,1008.92
2022-08-30T07:13:43.056Z,1008.96
2022-08-30T07:14:43.027Z,1008.96
2022-08-30T07:15:43.067Z,1008.96
2022-08-30T07:16:43.000Z,1008.93
2022-08-30T07:17:42.984Z,1008.93
2022-08-30T07:18:42.978Z,1008.95
2022-08-30T07:19:42.981Z,1008.97
2022-08-30T07:20:43.768Z,1008.99
2022-08-30T07:21:42.961Z,1008.97
2022-08-30T07:22:42.911Z,1009.03
2022-08-30T07:23:42.918Z,1009.04
2022-08-30T07:24:42.942Z,1009.00
2022-08-30T07:25:42.899Z,1008.99
2022-08-30T07:26:42.921Z,1008.99
2022-08-30T07:27:42.842Z,1009.02
2022-08-30T07:28:42.833Z,1009.01
2022-08-30T07:29:42.832Z,1009.03
2022-08-30T07:30:42.830Z,1009.04
2022-08-30T07:31:42.791Z,1009.04
2022-08-30T07:32:42.769Z,1009.08
2022-08-30T07:33:42.773Z,1009.08
2022-08-30T07:34:42.754Z,1008.99
2022-08-30T07:35:42.789Z,1009.00
2022-08-30T07:36:42.760Z,1009.02
2022-08-30T07:37:42.712Z,1009.01
2022-08-30T07:38:42.707Z,1008.99
2022-08-30T07:39:47.570Z,1009.03
2022-08-30T07:40:42.730Z,1009.01
2022-08-30T07:41:45.377Z,1009.01
2022-08-30T07:42:42.627Z,1008.89
2022-08-30T07:43:42.625Z,1008.91
2022-08-30T07:44:42.628Z,1008.96
2022-08-30T07:45:42.625Z,1008.91
2022-08-30T07:46:43.533Z,1008.94
2022-08-30T07:47:42.558Z,1008.84
2022-08-30T07:48:42.602Z,1008.94
2022-08-30T07:49:42.566Z,1008.90
2022-08-30T07:50:42.557Z,1008.93
2022-08-30T07:51:43.471Z,1008.92
2022-08-30T07:52:42.524Z,1008.92
2022-08-30T07:53:42.585Z,1008.98
2022-08-30T07:54:42.585Z,1008.93
2022-08-30T07:55:42.590Z,1008.88
2022-08-30T07:56:43.428Z,1008.91
2022-08-30T07:57:42.591Z,1008.95
2022-08-30T07:58:42.601Z,1008.95
2022-08-30T07:59:42.613Z,1008.92
2022-08-30T08:00:42.424Z,1008.90
2022-08-30T08:01:43.408Z,1008.88
2022-08-30T08:02:42.441Z,1008.91
2022-08-30T08:03:42.360Z,1008.91
2022-08-30T08:04:42.408Z,1008.88
2022-08-30T08:05:42.407Z,1008.88
2022-08-30T08:06:42.896Z,1008.87
2022-08-30T08:07:42.296Z,1008.87
2022-08-30T08:08:42.309Z,1008.89
2022-08-30T08:09:42.358Z,1008.82
2022-08-30T08:10:42.280Z,1008.86
2022-08-30T08:11:42.273Z,1008.82
2022-08-30T08:12:42.299Z,1008.88
2022-08-30T08:13:50.719Z,1008.87
2022-08-30T08:14:42.223Z,1008.85
2022-08-30T08:15:42.248Z,1008.86
2022-08-30T08:16:42.238Z,1008.87
2022-08-30T08:17:42.165Z,1008.87
2022-08-30T08:18:42.151Z,1008.83
2022-08-30T08:19:42.145Z,1008.86
2022-08-30T08:20:42.153Z,1008.88
2022-08-30T08:21:42.111Z,1008.84
2022-08-30T08:22:42.089Z,1008.87
2022-08-30T08:23:42.088Z,1008.92
2022-08-30T08:24:42.106Z,1008.88
2022-08-30T08:25:42.088Z,1008.89
2022-08-30T08:26:45.328Z,1008.89
2022-08-30T08:27:42.021Z,1008.87
2022-08-30T08:28:42.018Z,1008.89
2022-08-30T08:29:42.017Z,1008.92
2022-08-30T08:30:45.159Z,1008.96
2022-08-30T08:31:41.992Z,1009.00
2022-08-30T08:32:41.984Z,1008.97
2022-08-30T08:33:41.943Z,1008.95
2022-08-30T08:34:41.943Z,1008.92
2022-08-30T08:35:41.950Z,1008.93
2022-08-30T08:36:41.902Z,1008.94
2022-08-30T08:37:41.893Z,1008.93
2022-08-30T08:38:41.881Z,1008.96
2022-08-30T08:39:41.882Z,1008.93
2022-08-30T08:40:41.968Z,1008.92
2022-08-30T08:41:41.843Z,1008.97
2022-08-30T08:42:41.839Z,1008.98
2022-08-30T08:43:41.814Z,1008.97
2022-08-30T08:44:41.849Z,1008.99
2022-08-30T08:45:41.814Z,1008.97
2022-08-30T08:46:45.328Z,1009.03
2022-08-30T08:47:42.406Z,1008.97
2022-08-30T08:48:59.084Z,1009.05
2022-08-30T08:49:41.740Z,1009.03
2022-08-30T08:50:41.753Z,1009.04
2022-08-30T08:51:41.753Z,1008.99
2022-08-30T08:52:41.750Z,1009.01
2022-08-30T08:53:48.881Z,1008.99
2022-08-30T08:54:41.672Z,1009.01
2022-08-30T08:55:41.746Z,1009.02
2022-08-30T08:56:41.695Z,1009.05
2022-08-30T08:57:41.672Z,1009.06
2022-08-30T08:58:41.621Z,1009.01
2022-08-30T08:59:41.609Z,1008.99
2022-08-30T09:00:41.609Z,1009.00
2022-08-30T09:01:41.626Z,1009.04
2022-08-30T09:02:41.573Z,1008.98
2022-08-30T09:03:41.558Z,1009.03
2022-08-30T09:04:41.622Z,1009.02
2022-08-30T09:05:41.544Z,1009.02
2022-08-30T09:06:45.086Z,1009.05
2022-08-30T09:07:41.583Z,1009.03
2022-08-30T09:08:41.511Z,1009.06
2022-08-30T09:09:41.491Z,1009.04
2022-08-30T09:10:50.553Z,1009.05
2022-08-30T09:11:41.461Z,1009.00
2022-08-30T09:12:41.499Z,1009.02
2022-08-30T09:13:42.420Z,1009.03
2022-08-30T09:14:46.084Z,1009.00
2022-08-30T09:15:41.427Z,1009.05
2022-08-30T09:16:41.395Z,1009.05
2022-08-30T09:17:41.418Z,1009.02
2022-08-30T09:18:41.920Z,1009.00
2022-08-30T09:19:41.350Z,1009.00
2022-08-30T09:20:41.340Z,1009.00
2022-08-30T09:21:41.347Z,1008.99
2022-08-30T09:22:41.321Z,1008.98
2022-08-30T09:23:41.921Z,1009.04
2022-08-30T09:24:41.279Z,1009.00
2022-08-30T09:25:41.838Z,1009.00
2022-08-30T09:26:41.295Z,1008.99
2022-08-30T09:27:41.281Z,1008.98
2022-08-30T09:28:41.923Z,1009.04
2022-08-30T09:29:41.213Z,1008.97
2022-08-30T09:30:41.233Z,1008.95
2022-08-30T09:31:41.199Z,1009.00
2022-08-30T09:32:41.201Z,1008.97
2022-08-30T09:33:41.214Z,1008.95
2022-08-30T09:34:41.151Z,1008.93
2022-08-30T09:35:41.132Z,1008.97
2022-08-30T09:36:41.153Z,1008.95
2022-08-30T09:37:41.119Z,1008.97
2022-08-30T09:38:41.957Z,1008.96
2022-08-30T09:39:41.076Z,1008.98
2022-08-30T09:40:41.131Z,1009.01
2022-08-30T09:41:41.058Z,1009.04
2022-08-30T09:42:41.063Z,1009.01
2022-08-30T09:43:41.933Z,1009.02
2022-08-30T09:44:41.014Z,1009.11
2022-08-30T09:45:40.997Z,1009.10
2022-08-30T09:46:41.087Z,1009.06
2022-08-30T09:47:40.981Z,1009.07
2022-08-30T09:48:41.851Z,1009.01
2022-08-30T09:49:41.008Z,1009.12
2022-08-30T09:50:42.198Z,1009.05
2022-08-30T09:51:40.920Z,1009.09
2022-08-30T09:52:40.996Z,1009.10
2022-08-30T09:53:50.931Z,1009.11
2022-08-30T09:54:40.925Z,1009.14
2022-08-30T09:55:40.859Z,1009.11
2022-08-30T09:56:41.269Z,1009.19
2022-08-30T09:57:40.822Z,1009.18
2022-08-30T09:58:40.822Z,1009.15
2022-08-30T09:59:40.792Z,1009.11
2022-08-30T10:00:40.792Z,1009.12
2022-08-30T10:01:40.859Z,1009.14
2022-08-30T10:02:40.783Z,1009.12
2022-08-30T10:03:40.996Z,1009.05
2022-08-30T10:04:40.726Z,1009.07
2022-08-30T10:05:40.722Z,1009.12
2022-08-30T10:06:42.110Z,1009.12
2022-08-30T10:07:40.701Z,1009.13
2022-08-30T10:08:40.671Z,1009.15
2022-08-30T10:09:40.657Z,1009.11
2022-08-30T10:10:44.070Z,1009.06
2022-08-30T10:11:40.644Z,1009.09
2022-08-30T10:12:40.615Z,1009.12
2022-08-30T10:13:40.600Z,1009.15
2022-08-30T10:14:40.584Z,1009.15
2022-08-30T10:15:40.597Z,1009.09
2022-08-30T10:16:40.610Z,1009.09
2022-08-30T10:17:40.577Z,1009.12
2022-08-30T10:18:40.533Z,1009.09
2022-08-30T10:19:40.520Z,1009.09
2022-08-30T10:20:40.522Z,1009.08
2022-08-30T10:21:40.507Z,1009.07
2022-08-30T10:22:40.477Z,1009.02
2022-08-30T10:23:40.471Z,1009.10
2022-08-30T10:24:40.449Z,1009.09
2022-08-30T10:25:40.452Z,1009.13
2022-08-30T10:26:40.454Z,1009.08
2022-08-30T10:27:40.427Z,1009.15
2022-08-30T10:28:40.410Z,1009.13
2022-08-30T10:29:42.491Z,1009.07
2022-08-30T10:30:40.382Z,1009.06
2022-08-30T10:31:40.365Z,1008.90
2022-08-30T10:32:40.381Z,1009.07
2022-08-30T10:33:40.343Z,1009.06
2022-08-30T10:34:40.316Z,1009.05
2022-08-30T10:35:40.313Z,1009.05
2022-08-30T10:36:40.320Z,1009.08
2022-08-30T10:37:40.309Z,1009.11
2022-08-30T10:38:40.955Z,1009.15
2022-08-30T10:39:40.248Z,1009.07
2022-08-30T10:40:40.287Z,1009.08
2022-08-30T10:41:40.237Z,1009.08
2022-08-30T10:42:40.347Z,1009.06
2022-08-30T10:43:40.254Z,1009.07
2022-08-30T10:44:41.206Z,1009.09
2022-08-30T10:45:40.180Z,1009.09
2022-08-30T10:46:40.172Z,1009.12
2022-08-30T10:47:40.183Z,1009.14
2022-08-30T10:48:41.002Z,1009.05
2022-08-30T10:49:40.422Z,1009.14
2022-08-30T10:50:41.373Z,1009.13
2022-08-30T10:51:40.119Z,1009.19
2022-08-30T10:52:40.114Z,1009.15
2022-08-30T10:53:40.074Z,1009.18
2022-08-30T10:54:40.052Z,1009.13
2022-08-30T10:55:40.042Z,1009.20
2022-08-30T10:56:40.054Z,1009.23
2022-08-30T10:57:43.003Z,1009.20
2022-08-30T10:58:39.999Z,1009.20
2022-08-30T10:59:40.010Z,1009.19
2022-08-30T11:00:39.978Z,1009.19
2022-08-30T11:01:46.282Z,1009.18
2022-08-30T11:02:39.982Z,1009.15
2022-08-30T11:03:39.980Z,1009.18
2022-08-30T11:04:39.944Z,1009.19
2022-08-30T11:05:40.708Z,1009.21
2022-08-30T11:06:39.912Z,1009.21
2022-08-30T11:07:39.903Z,1009.24
2022-08-30T11:08:39.872Z,1009.26
2022-08-30T11:09:39.858Z,1009.25
2022-08-30T11:10:39.842Z,1009.28
2022-08-30T11:11:40.778Z,1009.28
2022-08-30T11:12:39.848Z,1009.24
2022-08-30T11:13:39.841Z,1009.26
2022-08-30T11:14:39.804Z,1009.26
2022-08-30T11:15:39.780Z,1009.20
2022-08-30T11:16:39.785Z,1009.23
2022-08-30T11:17:39.781Z,1009.22
2022-08-30T11:18:39.737Z,1009.15
2022-08-30T11:19:39.735Z,1009.19
2022-08-30T11:20:39.708Z,1009.14
2022-08-30T11:21:39.723Z,1009.15
2022-08-30T11:22:39.699Z,1009.18
2022-08-30T11:23:39.668Z,1009.17
2022-08-30T11:24:40.488Z,1009.18
2022-08-30T11:25:39.640Z,1009.22
2022-08-30T11:26:39.638Z,1009.15
2022-08-30T11:27:39.642Z,1009.23
2022-08-30T11:28:39.652Z,1009.19
2022-08-30T11:29:39.599Z,1009.15
2022-08-30T11:30:39.574Z,1009.21
2022-08-30T11:31:39.599Z,1009.22
2022-08-30T11:32:39.575Z,1009.19
2022-08-30T11:33:39.549Z,1009.16
2022-08-30T11:34:39.585Z,1009.14
2022-08-30T11:35:39.535Z,1009.14
2022-08-30T11:36:46.064Z,1009.12
2022-08-30T11:37:40.002Z,1009.16
2022-08-30T11:38:39.469Z,1009.15
2022-08-30T11:39:39.467Z,1009.11
2022-08-30T11:40:39.444Z,1009.11
2022-08-30T11:41:42.506Z,1009.10
2022-08-30T11:43:39.418Z,1009.16
2022-08-30T11:44:39.406Z,1009.19
2022-08-30T11:45:39.414Z,1009.10
2022-08-30T11:46:39.366Z,1009.10
2022-08-30T11:47:39.419Z,1009.15
2022-08-30T11:48:39.367Z,1009.08
2022-08-30T11:49:39.350Z,1009.08
2022-08-30T11:50:39.306Z,1009.11
2022-08-30T11:51:39.315Z,1009.09
2022-08-30T11:52:39.319Z,1009.12
2022-08-30T11:53:39.300Z,1009.13
2022-08-30T11:54:39.258Z,1009.14
2022-08-30T11:55:39.267Z,1009.10
2022-08-30T11:56:39.230Z,1009.19
2022-08-30T11:57:39.237Z,1009.10
2022-08-30T11:58:39.236Z,1009.15
2022-08-30T11:59:39.243Z,1009.08
2022-08-30T12:00:39.203Z,1009.06
2022-08-30T12:01:51.711Z,1009.04
2022-08-30T12:02:39.332Z,1009.01
2022-08-30T12:03:39.250Z,1009.18
2022-08-30T12:04:39.132Z,1008.99
2022-08-30T12:05:39.132Z,1008.97
2022-08-30T12:06:39.105Z,1008.98